sensor_id;sensor_type;location;lat;lon;timestamp;pressure;altitude;pressure_sealevel;temperature;humidity
64616;BME280;51027;42.162;24.754;2023-05-29T00:01:31;99415.13;;;16.46;100.00
64616;BME280;51027;42.162;24.754;2023-05-29T00:03:56;99425.19;;;16.40;100.00
64616;BME280;51027;42.162;24.754;2023-05-29T00:06:24;99382.56;;;16.29;100.00
64616;BME280;51027;42.162;24.754;2023-05-29T00:08:50;99419.25;;;16.37;100.00
64616;BME280;51027;42.162;24.754;2023-05-29T00:11:15;99412.47;;;16.46;100.00
64616;BME280;51027;42.162;24.754;2023-05-29T00:13:41;99401.66;;;16.22;100.00
64616;BME280;51027;42.162;24.754;2023-05-29T00:16:06;99425.06;;;16.29;100.00
64616;BME280;51027;42.162;24.754;2023-05-29T00:18:32;99419.19;;;16.24;100.00
64616;BME280;51027;42.162;24.754;2023-05-29T00:20:58;99385.47;;;16.12;100.00
64616;BME280;51027;42.162;24.754;2023-05-29T00:23:23;99416.69;;;16.35;100.00
64616;BME280;51027;42.162;24.754;2023-05-29T00:25:49;99390.94;;;16.23;100.00
64616;BME280;51027;42.162;24.754;2023-05-29T00:28:14;99408.81;;;16.34;100.00
64616;BME280;51027;42.162;24.754;2023-05-29T00:30:40;99411.41;;;16.48;100.00
64616;BME280;51027;42.162;24.754;2023-05-29T00:33:05;99402.69;;;16.46;100.00
64616;BME280;51027;42.162;24.754;2023-05-29T00:35:31;99404.78;;;16.54;100.00
64616;BME280;51027;42.162;24.754;2023-05-29T00:37:57;99393.72;;;16.34;100.00
64616;BME280;51027;42.162;24.754;2023-05-29T00:40:23;99398.22;;;16.47;100.00
64616;BME280;51027;42.162;24.754;2023-05-29T00:42:48;99403.44;;;16.48;100.00
64616;BME280;51027;42.162;24.754;2023-05-29T00:45:14;99374.19;;;16.35;100.00
64616;BME280;51027;42.162;24.754;2023-05-29T00:47:41;99389.78;;;16.40;100.00
64616;BME280;51027;42.162;24.754;2023-05-29T00:50:08;99400.31;;;16.41;100.00
64616;BME280;51027;42.162;24.754;2023-05-29T00:52:34;99391.94;;;16.35;100.00
64616;BME280;51027;42.162;24.754;2023-05-29T00:55:00;99402.56;;;16.48;100.00
64616;BME280;51027;42.162;24.754;2023-05-29T00:57:28;99401.91;;;16.31;100.00
64616;BME280;51027;42.162;24.754;2023-05-29T00:59:53;99383.63;;;16.27;100.00
64616;BME280;51027;42.162;24.754;2023-05-29T01:02:20;99400.22;;;16.43;100.00
64616;BME280;51027;42.162;24.754;2023-05-29T01:04:47;99405.22;;;16.48;100.00
64616;BME280;51027;42.162;24.754;2023-05-29T01:07:13;99404.13;;;16.25;100.00
64616;BME280;51027;42.162;24.754;2023-05-29T01:09:39;99391.94;;;16.35;100.00
64616;BME280;51027;42.162;24.754;2023-05-29T01:12:25;99397.03;;;16.38;100.00
64616;BME280;51027;42.162;24.754;2023-05-29T01:26:31;99389.06;;;16.38;100.00
64616;BME280;51027;42.162;24.754;2023-05-29T01:29:02;99391.94;;;16.60;100.00
64616;BME280;51027;42.162;24.754;2023-05-29T01:31:29;99389.47;;;16.45;100.00
64616;BME280;51027;42.162;24.754;2023-05-29T01:33:57;99392.91;;;16.47;100.00
64616;BME280;51027;42.162;24.754;2023-05-29T01:36:24;99392.34;;;16.41;100.00
64616;BME280;51027;42.162;24.754;2023-05-29T01:38:51;99386.69;;;16.33;100.00
64616;BME280;51027;42.162;24.754;2023-05-29T01:41:19;99392.06;;;16.46;100.00
64616;BME280;51027;42.162;24.754;2023-05-29T01:43:46;99369.88;;;16.20;100.00
64616;BME280;51027;42.162;24.754;2023-05-29T01:46:16;99394.78;;;16.32;100.00
64616;BME280;51027;42.162;24.754;2023-05-29T01:48:42;99388.19;;;16.25;100.00
64616;BME280;51027;42.162;24.754;2023-05-29T01:51:09;99389.91;;;16.26;100.00
64616;BME280;51027;42.162;24.754;2023-05-29T01:53:39;99351.06;;;16.10;100.00
64616;BME280;51027;42.162;24.754;2023-05-29T01:56:05;99382.66;;;16.15;100.00
64616;BME280;51027;42.162;24.754;2023-05-29T01:58:32;99401.25;;;16.15;100.00
64616;BME280;51027;42.162;24.754;2023-05-29T02:00:58;99387.13;;;16.27;100.00
64616;BME280;51027;42.162;24.754;2023-05-29T02:03:25;99398.91;;;16.23;100.00
64616;BME280;51027;42.162;24.754;2023-05-29T02:05:54;99402.84;;;16.30;100.00
64616;BME280;51027;42.162;24.754;2023-05-29T02:08:20;99394.31;;;16.12;100.00
64616;BME280;51027;42.162;24.754;2023-05-29T02:10:49;99388.59;;;16.19;100.00
64616;BME280;51027;42.162;24.754;2023-05-29T02:13:14;99406.06;;;16.35;100.00
64616;BME280;51027;42.162;24.754;2023-05-29T02:15:40;99389.66;;;16.16;100.00
64616;BME280;51027;42.162;24.754;2023-05-29T02:18:09;99402.22;;;16.27;100.00
64616;BME280;51027;42.162;24.754;2023-05-29T02:20:37;99388.69;;;16.17;100.00
64616;BME280;51027;42.162;24.754;2023-05-29T02:23:04;99402.41;;;16.24;100.00
64616;BME280;51027;42.162;24.754;2023-05-29T02:25:29;99403.81;;;16.29;100.00
64616;BME280;51027;42.162;24.754;2023-05-29T02:27:55;99402.03;;;16.03;100.00
64616;BME280;51027;42.162;24.754;2023-05-29T02:30:20;99401.03;;;16.18;100.00
64616;BME280;51027;42.162;24.754;2023-05-29T02:32:45;99406.84;;;16.10;100.00
64616;BME280;51027;42.162;24.754;2023-05-29T02:35:11;99402.16;;;16.14;100.00
64616;BME280;51027;42.162;24.754;2023-05-29T02:37:40;99402.81;;;16.05;100.00
64616;BME280;51027;42.162;24.754;2023-05-29T02:40:06;99409.28;;;16.13;100.00
64616;BME280;51027;42.162;24.754;2023-05-29T02:42:34;99414.19;;;16.07;100.00
64616;BME280;51027;42.162;24.754;2023-05-29T02:45:02;99395.88;;;16.02;100.00
64616;BME280;51027;42.162;24.754;2023-05-29T02:47:28;99403.97;;;16.13;100.00
64616;BME280;51027;42.162;24.754;2023-05-29T02:49:53;99401.13;;;16.17;100.00
64616;BME280;51027;42.162;24.754;2023-05-29T02:52:19;99411.94;;;16.13;100.00
64616;BME280;51027;42.162;24.754;2023-05-29T02:54:44;99409.50;;;16.10;100.00
64616;BME280;51027;42.162;24.754;2023-05-29T02:57:10;99406.00;;;16.10;100.00
64616;BME280;51027;42.162;24.754;2023-05-29T02:59:35;99415.50;;;16.27;100.00
64616;BME280;51027;42.162;24.754;2023-05-29T03:02:02;99415.41;;;16.28;100.00
64616;BME280;51027;42.162;24.754;2023-05-29T03:04:27;99412.88;;;16.39;100.00
64616;BME280;51027;42.162;24.754;2023-05-29T03:06:53;99418.41;;;16.36;100.00
64616;BME280;51027;42.162;24.754;2023-05-29T03:09:19;99419.03;;;16.40;100.00
64616;BME280;51027;42.162;24.754;2023-05-29T03:11:44;99398.63;;;16.40;100.00
64616;BME280;51027;42.162;24.754;2023-05-29T03:14:13;99416.81;;;16.47;100.00
64616;BME280;51027;42.162;24.754;2023-05-29T03:16:38;99418.94;;;16.54;100.00
64616;BME280;51027;42.162;24.754;2023-05-29T03:19:06;99422.59;;;16.66;100.00
64616;BME280;51027;42.162;24.754;2023-05-29T03:21:32;99423.63;;;16.63;100.00
64616;BME280;51027;42.162;24.754;2023-05-29T03:23:58;99424.91;;;16.58;100.00
64616;BME280;51027;42.162;24.754;2023-05-29T03:26:24;99419.59;;;16.58;100.00
64616;BME280;51027;42.162;24.754;2023-05-29T03:28:51;99427.38;;;16.61;100.00
64616;BME280;51027;42.162;24.754;2023-05-29T03:31:16;99403.09;;;16.40;100.00
64616;BME280;51027;42.162;24.754;2023-05-29T03:33:41;99440.53;;;16.50;100.00
64616;BME280;51027;42.162;24.754;2023-05-29T03:36:07;99436.28;;;16.47;100.00
64616;BME280;51027;42.162;24.754;2023-05-29T03:38:33;99413.50;;;16.43;100.00
64616;BME280;51027;42.162;24.754;2023-05-29T03:40:58;99407.78;;;16.36;100.00
64616;BME280;51027;42.162;24.754;2023-05-29T03:43:24;99420.63;;;16.42;100.00
64616;BME280;51027;42.162;24.754;2023-05-29T03:45:49;99446.47;;;16.53;100.00
64616;BME280;51027;42.162;24.754;2023-05-29T03:48:14;99436.28;;;16.60;100.00
64616;BME280;51027;42.162;24.754;2023-05-29T03:50:40;99411.38;;;16.35;100.00
64616;BME280;51027;42.162;24.754;2023-05-29T03:53:06;99433.63;;;16.60;100.00
64616;BME280;51027;42.162;24.754;2023-05-29T03:55:31;99445.63;;;16.53;100.00
64616;BME280;51027;42.162;24.754;2023-05-29T03:57:57;99405.84;;;16.38;100.00
64616;BME280;51027;42.162;24.754;2023-05-29T04:00:22;99403.19;;;16.38;100.00
64616;BME280;51027;42.162;24.754;2023-05-29T04:02:47;99416.59;;;16.50;100.00
64616;BME280;51027;42.162;24.754;2023-05-29T04:05:13;99447.19;;;16.69;100.00
64616;BME280;51027;42.162;24.754;2023-05-29T04:07:38;99442.44;;;16.48;100.00
64616;BME280;51027;42.162;24.754;2023-05-29T04:10:05;99440.31;;;16.40;100.00
64616;BME280;51027;42.162;24.754;2023-05-29T04:12:32;99453.44;;;16.56;100.00
64616;BME280;51027;42.162;24.754;2023-05-29T04:14:58;99430.91;;;16.34;100.00
64616;BME280;51027;42.162;24.754;2023-05-29T04:17:23;99458.94;;;16.53;100.00
64616;BME280;51027;42.162;24.754;2023-05-29T04:19:48;99460.22;;;16.47;100.00
64616;BME280;51027;42.162;24.754;2023-05-29T04:22:14;99455.78;;;16.33;100.00
64616;BME280;51027;42.162;24.754;2023-05-29T04:24:40;99450.69;;;16.30;100.00
64616;BME280;51027;42.162;24.754;2023-05-29T04:27:07;99469.22;;;16.45;100.00
64616;BME280;51027;42.162;24.754;2023-05-29T04:29:34;99475.78;;;16.26;100.00
64616;BME280;51027;42.162;24.754;2023-05-29T04:32:00;99474.09;;;16.25;100.00
64616;BME280;51027;42.162;24.754;2023-05-29T04:34:29;99475.97;;;16.23;100.00
64616;BME280;51027;42.162;24.754;2023-05-29T04:36:58;99476.88;;;16.36;100.00
64616;BME280;51027;42.162;24.754;2023-05-29T04:39:24;99457.66;;;16.46;100.00
64616;BME280;51027;42.162;24.754;2023-05-29T04:41:50;99477.13;;;16.59;100.00
64616;BME280;51027;42.162;24.754;2023-05-29T04:44:17;99464.13;;;16.54;100.00
64616;BME280;51027;42.162;24.754;2023-05-29T04:46:43;99489.53;;;16.85;100.00
64616;BME280;51027;42.162;24.754;2023-05-29T04:49:12;99493.06;;;16.86;100.00
64616;BME280;51027;42.162;24.754;2023-05-29T04:51:40;99480.53;;;16.88;100.00
64616;BME280;51027;42.162;24.754;2023-05-29T04:54:07;99478.38;;;16.80;100.00
64616;BME280;51027;42.162;24.754;2023-05-29T04:56:34;99483.69;;;16.80;100.00
64616;BME280;51027;42.162;24.754;2023-05-29T04:58:59;99494.22;;;16.94;100.00
64616;BME280;51027;42.162;24.754;2023-05-29T05:01:25;99497.72;;;16.82;100.00
64616;BME280;51027;42.162;24.754;2023-05-29T05:03:50;99506.28;;;16.60;100.00
64616;BME280;51027;42.162;24.754;2023-05-29T05:06:17;99499.13;;;16.48;100.00
64616;BME280;51027;42.162;24.754;2023-05-29T05:08:43;99505.28;;;16.49;100.00
64616;BME280;51027;42.162;24.754;2023-05-29T05:11:09;99502.66;;;16.61;100.00
64616;BME280;51027;42.162;24.754;2023-05-29T05:13:34;99501.59;;;16.64;100.00
64616;BME280;51027;42.162;24.754;2023-05-29T05:16:00;99497.31;;;16.76;100.00
64616;BME280;51027;42.162;24.754;2023-05-29T05:18:26;99502.53;;;16.77;100.00
64616;BME280;51027;42.162;24.754;2023-05-29T05:20:51;99505.31;;;16.88;100.00
64616;BME280;51027;42.162;24.754;2023-05-29T05:23:17;99508.59;;;16.79;100.00
64616;BME280;51027;42.162;24.754;2023-05-29T05:25:42;99482.63;;;16.70;100.00
64616;BME280;51027;42.162;24.754;2023-05-29T05:28:08;99509.22;;;16.83;100.00
64616;BME280;51027;42.162;24.754;2023-05-29T05:30:34;99513.06;;;16.79;100.00
64616;BME280;51027;42.162;24.754;2023-05-29T05:33:02;99519.13;;;16.81;100.00
64616;BME280;51027;42.162;24.754;2023-05-29T05:35:29;99514.19;;;16.75;100.00
64616;BME280;51027;42.162;24.754;2023-05-29T05:37:54;99519.88;;;16.83;100.00
64616;BME280;51027;42.162;24.754;2023-05-29T05:40:23;99515.41;;;16.83;100.00
64616;BME280;51027;42.162;24.754;2023-05-29T05:42:48;99526.28;;;17.06;100.00
64616;BME280;51027;42.162;24.754;2023-05-29T05:45:14;99524.78;;;17.14;100.00
64616;BME280;51027;42.162;24.754;2023-05-29T05:47:39;99525.13;;;17.10;100.00
64616;BME280;51027;42.162;24.754;2023-05-29T05:50:07;99518.94;;;16.96;100.00
64616;BME280;51027;42.162;24.754;2023-05-29T05:52:33;99525.75;;;16.88;100.00
64616;BME280;51027;42.162;24.754;2023-05-29T05:54:59;99531.28;;;16.97;100.00
64616;BME280;51027;42.162;24.754;2023-05-29T05:57:24;99523.09;;;17.01;100.00
64616;BME280;51027;42.162;24.754;2023-05-29T05:59:50;99523.38;;;16.96;100.00
64616;BME280;51027;42.162;24.754;2023-05-29T06:02:16;99534.47;;;17.03;100.00
64616;BME280;51027;42.162;24.754;2023-05-29T06:04:41;99520.97;;;17.18;100.00
64616;BME280;51027;42.162;24.754;2023-05-29T06:07:07;99522.13;;;17.02;100.00
64616;BME280;51027;42.162;24.754;2023-05-29T06:09:32;99523.41;;;17.34;100.00
64616;BME280;51027;42.162;24.754;2023-05-29T06:11:58;99520.13;;;17.43;100.00
64616;BME280;51027;42.162;24.754;2023-05-29T06:14:24;99518.94;;;17.35;100.00
64616;BME280;51027;42.162;24.754;2023-05-29T06:16:49;99505.00;;;17.44;100.00
64616;BME280;51027;42.162;24.754;2023-05-29T06:19:16;99521.59;;;17.60;100.00
64616;BME280;51027;42.162;24.754;2023-05-29T06:21:41;99513.63;;;17.73;100.00
64616;BME280;51027;42.162;24.754;2023-05-29T06:24:06;99520.63;;;17.61;100.00
64616;BME280;51027;42.162;24.754;2023-05-29T06:26:32;99520.03;;;17.70;100.00
64616;BME280;51027;42.162;24.754;2023-05-29T06:28:57;99522.34;;;17.75;100.00
64616;BME280;51027;42.162;24.754;2023-05-29T06:31:23;99511.69;;;17.75;100.00
64616;BME280;51027;42.162;24.754;2023-05-29T06:33:48;99525.16;;;17.97;100.00
64616;BME280;51027;42.162;24.754;2023-05-29T06:36:13;99527.16;;;18.06;100.00
64616;BME280;51027;42.162;24.754;2023-05-29T06:38:45;99530.41;;;17.99;100.00
64616;BME280;51027;42.162;24.754;2023-05-29T06:41:10;99539.75;;;18.04;100.00
64616;BME280;51027;42.162;24.754;2023-05-29T06:43:36;99516.84;;;18.26;100.00
64616;BME280;51027;42.162;24.754;2023-05-29T06:46:01;99528.78;;;18.33;100.00
64616;BME280;51027;42.162;24.754;2023-05-29T06:48:26;99530.66;;;18.20;100.00
64616;BME280;51027;42.162;24.754;2023-05-29T06:50:52;99517.56;;;18.40;100.00
64616;BME280;51027;42.162;24.754;2023-05-29T06:53:17;99535.19;;;18.54;100.00
64616;BME280;51027;42.162;24.754;2023-05-29T06:55:42;99523.09;;;18.37;100.00
64616;BME280;51027;42.162;24.754;2023-05-29T06:58:08;99532.75;;;18.51;100.00
64616;BME280;51027;42.162;24.754;2023-05-29T07:00:33;99509.13;;;18.58;100.00
64616;BME280;51027;42.162;24.754;2023-05-29T07:02:59;99526.28;;;18.90;100.00
64616;BME280;51027;42.162;24.754;2023-05-29T07:05:26;99521.06;;;18.65;100.00
64616;BME280;51027;42.162;24.754;2023-05-29T07:07:52;99534.03;;;18.93;100.00
64616;BME280;51027;42.162;24.754;2023-05-29T07:10:17;99534.22;;;19.25;100.00
64616;BME280;51027;42.162;24.754;2023-05-29T07:12:43;99533.34;;;19.14;100.00
64616;BME280;51027;42.162;24.754;2023-05-29T07:15:08;99524.09;;;18.95;100.00
64616;BME280;51027;42.162;24.754;2023-05-29T07:17:34;99533.47;;;19.01;100.00
64616;BME280;51027;42.162;24.754;2023-05-29T07:19:59;99536.38;;;19.20;100.00
64616;BME280;51027;42.162;24.754;2023-05-29T07:22:25;99536.16;;;19.12;100.00
64616;BME280;51027;42.162;24.754;2023-05-29T07:24:50;99524.00;;;19.08;100.00
64616;BME280;51027;42.162;24.754;2023-05-29T07:27:15;99544.09;;;19.47;100.00
64616;BME280;51027;42.162;24.754;2023-05-29T07:29:41;99540.31;;;19.39;100.00
64616;BME280;51027;42.162;24.754;2023-05-29T07:32:06;99525.97;;;19.28;100.00
64616;BME280;51027;42.162;24.754;2023-05-29T07:34:32;99518.94;;;19.39;100.00
64616;BME280;51027;42.162;24.754;2023-05-29T07:37:05;99529.50;;;19.40;100.00
64616;BME280;51027;42.162;24.754;2023-05-29T07:39:32;99541.19;;;19.62;100.00
64616;BME280;51027;42.162;24.754;2023-05-29T07:41:59;99545.94;;;19.92;100.00
64616;BME280;51027;42.162;24.754;2023-05-29T07:44:26;99540.66;;;20.12;100.00
64616;BME280;51027;42.162;24.754;2023-05-29T07:46:51;99538.53;;;19.84;100.00
64616;BME280;51027;42.162;24.754;2023-05-29T07:49:17;99505.25;;;19.66;100.00
64616;BME280;51027;42.162;24.754;2023-05-29T07:51:42;99548.84;;;20.00;100.00
64616;BME280;51027;42.162;24.754;2023-05-29T07:54:08;99545.06;;;20.02;100.00
64616;BME280;51027;42.162;24.754;2023-05-29T07:56:33;99547.63;;;20.04;100.00
64616;BME280;51027;42.162;24.754;2023-05-29T07:59:00;99530.97;;;20.00;100.00
64616;BME280;51027;42.162;24.754;2023-05-29T08:01:26;99532.56;;;20.03;100.00
64616;BME280;51027;42.162;24.754;2023-05-29T08:03:52;99531.09;;;20.10;100.00
64616;BME280;51027;42.162;24.754;2023-05-29T08:06:18;99546.28;;;19.98;100.00
64616;BME280;51027;42.162;24.754;2023-05-29T08:08:44;99544.47;;;19.99;100.00
64616;BME280;51027;42.162;24.754;2023-05-29T08:11:09;99546.16;;;20.00;100.00
64616;BME280;51027;42.162;24.754;2023-05-29T08:13:36;99526.84;;;19.96;100.00
64616;BME280;51027;42.162;24.754;2023-05-29T08:16:01;99541.31;;;20.05;100.00
64616;BME280;51027;42.162;24.754;2023-05-29T08:18:29;99540.81;;;20.11;100.00
64616;BME280;51027;42.162;24.754;2023-05-29T08:20:55;99521.22;;;20.10;100.00
64616;BME280;51027;42.162;24.754;2023-05-29T08:23:21;99542.69;;;20.42;100.00
64616;BME280;51027;42.162;24.754;2023-05-29T08:25:46;99538.47;;;20.29;100.00
64616;BME280;51027;42.162;24.754;2023-05-29T08:28:14;99544.75;;;20.50;100.00
64616;BME280;51027;42.162;24.754;2023-05-29T08:30:39;99542.56;;;20.55;100.00
64616;BME280;51027;42.162;24.754;2023-05-29T08:33:05;99536.72;;;20.82;100.00
64616;BME280;51027;42.162;24.754;2023-05-29T08:35:30;99539.94;;;21.18;100.00
64616;BME280;51027;42.162;24.754;2023-05-29T08:37:56;99538.94;;;21.61;100.00
64616;BME280;51027;42.162;24.754;2023-05-29T08:40:21;99523.41;;;21.64;100.00
64616;BME280;51027;42.162;24.754;2023-05-29T08:42:52;99525.72;;;21.38;100.00
64616;BME280;51027;42.162;24.754;2023-05-29T08:45:22;99510.22;;;21.00;100.00
64616;BME280;51027;42.162;24.754;2023-05-29T08:47:53;99499.28;;;21.13;100.00
64616;BME280;51027;42.162;24.754;2023-05-29T08:50:20;99519.66;;;20.83;100.00
64616;BME280;51027;42.162;24.754;2023-05-29T08:52:47;99516.47;;;20.89;100.00
64616;BME280;51027;42.162;24.754;2023-05-29T08:55:13;99523.94;;;20.86;100.00
64616;BME280;51027;42.162;24.754;2023-05-29T08:57:39;99503.03;;;21.00;100.00
64616;BME280;51027;42.162;24.754;2023-05-29T09:00:06;99514.22;;;21.06;100.00
64616;BME280;51027;42.162;24.754;2023-05-29T09:02:37;99508.94;;;21.25;100.00
64616;BME280;51027;42.162;24.754;2023-05-29T09:05:02;99513.09;;;21.29;100.00
64616;BME280;51027;42.162;24.754;2023-05-29T09:07:29;99521.97;;;21.09;100.00
64616;BME280;51027;42.162;24.754;2023-05-29T09:09:55;99518.97;;;21.02;100.00
64616;BME280;51027;42.162;24.754;2023-05-29T09:12:21;99508.72;;;20.86;100.00
64616;BME280;51027;42.162;24.754;2023-05-29T09:14:47;99516.28;;;20.81;100.00
64616;BME280;51027;42.162;24.754;2023-05-29T09:17:13;99517.84;;;20.84;100.00
64616;BME280;51027;42.162;24.754;2023-05-29T09:19:38;99511.56;;;20.94;100.00
64616;BME280;51027;42.162;24.754;2023-05-29T09:22:07;99519.88;;;20.91;100.00
64616;BME280;51027;42.162;24.754;2023-05-29T09:24:34;99523.16;;;20.95;100.00
64616;BME280;51027;42.162;24.754;2023-05-29T09:27:02;99518.75;;;20.94;100.00
64616;BME280;51027;42.162;24.754;2023-05-29T09:29:32;99504.91;;;21.10;100.00
64616;BME280;51027;42.162;24.754;2023-05-29T09:31:58;99517.84;;;21.05;100.00
64616;BME280;51027;42.162;24.754;2023-05-29T09:34:24;99524.25;;;21.13;100.00
64616;BME280;51027;42.162;24.754;2023-05-29T09:36:52;99518.59;;;21.27;100.00
64616;BME280;51027;42.162;24.754;2023-05-29T09:39:18;99512.84;;;21.32;100.00
64616;BME280;51027;42.162;24.754;2023-05-29T09:41:44;99491.88;;;21.16;100.00
64616;BME280;51027;42.162;24.754;2023-05-29T09:44:12;99508.59;;;21.30;100.00
64616;BME280;51027;42.162;24.754;2023-05-29T09:46:39;99510.00;;;21.34;100.00
64616;BME280;51027;42.162;24.754;2023-05-29T09:49:12;99505.59;;;21.53;100.00
64616;BME280;51027;42.162;24.754;2023-05-29T09:51:38;99489.66;;;21.52;100.00
64616;BME280;51027;42.162;24.754;2023-05-29T09:54:16;99502.00;;;21.74;100.00
64616;BME280;51027;42.162;24.754;2023-05-29T09:56:42;99499.38;;;21.83;100.00
64616;BME280;51027;42.162;24.754;2023-05-29T09:59:12;99497.84;;;21.50;100.00
64616;BME280;51027;42.162;24.754;2023-05-29T10:01:40;99484.38;;;21.71;100.00
64616;BME280;51027;42.162;24.754;2023-05-29T10:04:12;99486.91;;;21.73;100.00
64616;BME280;51027;42.162;24.754;2023-05-29T10:06:45;99481.09;;;21.58;100.00
64616;BME280;51027;42.162;24.754;2023-05-29T10:09:15;99461.97;;;21.82;100.00
64616;BME280;51027;42.162;24.754;2023-05-29T10:11:43;99482.78;;;21.99;100.00
64616;BME280;51027;42.162;24.754;2023-05-29T10:14:11;99456.56;;;21.63;100.00
64616;BME280;51027;42.162;24.754;2023-05-29T10:16:42;99478.94;;;21.92;100.00
64616;BME280;51027;42.162;24.754;2023-05-29T10:19:12;99477.75;;;22.25;100.00
64616;BME280;51027;42.162;24.754;2023-05-29T10:21:40;99473.41;;;21.84;100.00
64616;BME280;51027;42.162;24.754;2023-05-29T10:24:07;99470.88;;;21.82;100.00
64616;BME280;51027;42.162;24.754;2023-05-29T10:26:41;99474.16;;;22.05;100.00
64616;BME280;51027;42.162;24.754;2023-05-29T10:29:26;99445.22;;;21.99;100.00
64616;BME280;51027;42.162;24.754;2023-05-29T10:34:33;99464.75;;;22.21;100.00
64616;BME280;51027;42.162;24.754;2023-05-29T10:37:31;99456.69;;;22.11;100.00
64616;BME280;51027;42.162;24.754;2023-05-29T10:39:52;99449.78;;;22.37;100.00
64616;BME280;51027;42.162;24.754;2023-05-29T10:42:47;99450.06;;;22.34;100.00
64616;BME280;51027;42.162;24.754;2023-05-29T10:50:41;99450.38;;;22.51;100.00
64616;BME280;51027;42.162;24.754;2023-05-29T10:53:07;99451.75;;;22.55;100.00
64616;BME280;51027;42.162;24.754;2023-05-29T10:55:39;99445.66;;;22.82;100.00
64616;BME280;51027;42.162;24.754;2023-05-29T10:58:06;99445.25;;;22.96;83.95
64616;BME280;51027;42.162;24.754;2023-05-29T11:00:31;99427.88;;;22.90;83.39
64616;BME280;51027;42.162;24.754;2023-05-29T11:03:02;99440.97;;;23.13;84.02
64616;BME280;51027;42.162;24.754;2023-05-29T11:05:28;99445.66;;;23.01;81.20
64616;BME280;51027;42.162;24.754;2023-05-29T11:07:58;99440.47;;;22.90;81.41
64616;BME280;51027;42.162;24.754;2023-05-29T11:11:00;99437.47;;;22.93;80.72
64616;BME280;51027;42.162;24.754;2023-05-29T11:13:36;99446.47;;;23.48;79.51
64616;BME280;51027;42.162;24.754;2023-05-29T11:16:05;99445.13;;;23.35;79.06
64616;BME280;51027;42.162;24.754;2023-05-29T11:18:31;99409.09;;;22.90;80.21
64616;BME280;51027;42.162;24.754;2023-05-29T11:21:03;99428.56;;;22.92;79.88
64616;BME280;51027;42.162;24.754;2023-05-29T11:23:31;99422.34;;;22.92;83.97
64616;BME280;51027;42.162;24.754;2023-05-29T11:25:59;99430.25;;;23.03;81.47
64616;BME280;51027;42.162;24.754;2023-05-29T11:28:24;99431.97;;;22.94;80.24
64616;BME280;51027;42.162;24.754;2023-05-29T11:30:51;99423.75;;;22.96;81.28
64616;BME280;51027;42.162;24.754;2023-05-29T11:33:24;99429.00;;;22.88;81.64
64616;BME280;51027;42.162;24.754;2023-05-29T11:35:56;99428.16;;;22.87;83.12
64616;BME280;51027;42.162;24.754;2023-05-29T11:38:23;99421.81;;;22.79;84.82
64616;BME280;51027;42.162;24.754;2023-05-29T11:40:49;99393.13;;;22.89;81.96
64616;BME280;51027;42.162;24.754;2023-05-29T11:43:15;99426.56;;;23.04;82.30
64616;BME280;51027;42.162;24.754;2023-05-29T11:45:41;99422.66;;;22.89;81.17
64616;BME280;51027;42.162;24.754;2023-05-29T11:48:06;99423.06;;;22.94;81.98
64616;BME280;51027;42.162;24.754;2023-05-29T11:50:33;99411.28;;;23.05;80.41
64616;BME280;51027;42.162;24.754;2023-05-29T11:53:00;99418.16;;;23.17;79.40
64616;BME280;51027;42.162;24.754;2023-05-29T11:55:26;99411.22;;;23.24;78.13
64616;BME280;51027;42.162;24.754;2023-05-29T11:57:57;99405.69;;;23.25;78.12
64616;BME280;51027;42.162;24.754;2023-05-29T12:00:24;99402.84;;;23.27;75.48
64616;BME280;51027;42.162;24.754;2023-05-29T12:02:51;99394.44;;;23.12;74.14
64616;BME280;51027;42.162;24.754;2023-05-29T12:05:17;99392.28;;;23.53;74.68
64616;BME280;51027;42.162;24.754;2023-05-29T12:10:15;99390.19;;;23.74;74.79
64616;BME280;51027;42.162;24.754;2023-05-29T12:12:42;99379.22;;;23.58;70.14
64616;BME280;51027;42.162;24.754;2023-05-29T12:15:08;99359.44;;;23.32;70.81
64616;BME280;51027;42.162;24.754;2023-05-29T12:17:35;99366.19;;;23.36;70.38
64616;BME280;51027;42.162;24.754;2023-05-29T12:20:01;99359.81;;;23.64;70.99
64616;BME280;51027;42.162;24.754;2023-05-29T12:22:36;99371.50;;;23.45;69.91
64616;BME280;51027;42.162;24.754;2023-05-29T12:25:16;99386.81;;;23.72;70.28
64616;BME280;51027;42.162;24.754;2023-05-29T12:27:44;99395.03;;;23.71;70.15
64616;BME280;51027;42.162;24.754;2023-05-29T12:30:13;99394.50;;;23.57;70.20
64616;BME280;51027;42.162;24.754;2023-05-29T12:32:46;99396.94;;;23.61;69.91
64616;BME280;51027;42.162;24.754;2023-05-29T12:40:19;99364.75;;;23.41;71.45
64616;BME280;51027;42.162;24.754;2023-05-29T12:42:54;99381.41;;;23.45;73.17
64616;BME280;51027;42.162;24.754;2023-05-29T12:45:22;99382.78;;;23.49;74.58
64616;BME280;51027;42.162;24.754;2023-05-29T12:47:52;99385.47;;;23.31;71.67
64616;BME280;51027;42.162;24.754;2023-05-29T12:50:26;99382.38;;;23.16;74.75
64616;BME280;51027;42.162;24.754;2023-05-29T12:55:28;99369.59;;;23.01;75.40
64616;BME280;51027;42.162;24.754;2023-05-29T12:57:54;99368.13;;;23.16;77.09
64616;BME280;51027;42.162;24.754;2023-05-29T13:00:21;99372.72;;;23.33;74.41
64616;BME280;51027;42.162;24.754;2023-05-29T13:02:47;99371.72;;;23.34;74.11
64616;BME280;51027;42.162;24.754;2023-05-29T13:05:14;99352.25;;;23.22;72.88
64616;BME280;51027;42.162;24.754;2023-05-29T13:07:41;99370.41;;;23.38;72.96
64616;BME280;51027;42.162;24.754;2023-05-29T13:10:07;99371.03;;;23.32;74.60